Time;durP1;ratioP1;P1;durP2;ratioP2;P2;SDS_P1;SDS_P2;PMS_P1;PMS_P2;Temp;Humidity;BMP_temperature;BMP_pressure;BME280_temperature;BME280_humidity;BME280_pressure;Samples;Min_cycle;Max_cycle;Signal;HPM_P1;HPM_P2
2022/09/24 00:01:23;;;;;;;4.53;4.13;;;13.60;78.80;;;;;;927975;152;27899;-75
2022/09/24 00:03:50;;;;;;;4.03;3.63;;;13.60;78.90;;;;;;928111;152;27442;-75
2022/09/24 00:06:19;;;;;;;7.03;3.87;;;13.60;79.20;;;;;;931155;151;27523;-75
2022/09/24 00:08:46;;;;;;;4.70;4.17;;;13.50;79.40;;;;;;932165;151;27449;-75
2022/09/24 00:11:12;;;;;;;4.87;4.10;;;13.50;79.60;;;;;;933617;151;28348;-76
2022/09/24 00:13:39;;;;;;;4.17;3.60;;;13.50;80.00;;;;;;933457;151;27304;-75
2022/09/24 00:16:06;;;;;;;4.03;3.63;;;13.50;80.30;;;;;;932907;151;27332;-75
2022/09/24 00:18:32;;;;;;;4.10;3.80;;;13.50;80.90;;;;;;932778;151;27381;-76
2022/09/24 00:20:59;;;;;;;5.00;4.03;;;13.50;80.60;;;;;;933833;151;27453;-77
2022/09/24 00:23:25;;;;;;;4.50;3.67;;;13.50;80.80;;;;;;933840;150;27352;-75
2022/09/24 00:28:37;;;;;;;5.20;4.70;;;13.50;81.10;;;;;;933376;151;27284;-76
2022/09/24 00:31:05;;;;;;;4.53;4.13;;;13.50;81.10;;;;;;932052;151;27486;-75
2022/09/24 00:33:32;;;;;;;4.67;4.23;;;13.50;81.40;;;;;;933063;151;27342;-75
2022/09/24 00:36:01;;;;;;;5.00;4.07;;;13.50;81.80;;;;;;933477;151;27352;-77
2022/09/24 00:41:04;;;;;;;4.53;4.10;;;13.50;81.90;;;;;;974235;144;37215;-76
2022/09/24 00:43:33;;;;;;;4.20;3.80;;;13.60;83.20;;;;;;956405;147;27364;-76
2022/09/24 00:46:18;;;;;;;4.43;4.07;;;13.60;83.20;;;;;;931643;152;27471;-76
2022/09/24 00:48:45;;;;;;;6.60;3.97;;;13.60;83.10;;;;;;933668;149;27348;-75
2022/09/24 00:51:12;;;;;;;6.67;3.63;;;13.60;82.90;;;;;;931450;152;27308;-75
2022/09/24 00:53:38;;;;;;;4.37;3.90;;;13.70;83.30;;;;;;933797;150;27322;-75
2022/09/24 00:56:04;;;;;;;4.20;3.80;;;13.70;83.30;;;;;;932628;151;27424;-75
2022/09/24 00:58:31;;;;;;;4.97;4.30;;;13.70;83.40;;;;;;931973;150;27426;-77
2022/09/24 01:01:03;;;;;;;4.70;4.30;;;13.70;83.50;;;;;;933492;150;27353;-75
2022/09/24 01:03:31;;;;;;;4.47;4.07;;;13.70;83.60;;;;;;933162;152;27357;-75
2022/09/24 01:05:56;;;;;;;4.10;3.80;;;13.70;83.60;;;;;;932553;149;27441;-75
2022/09/24 01:08:23;;;;;;;4.17;3.77;;;13.70;83.70;;;;;;931443;149;27344;-75
2022/09/24 01:11:08;;;;;;;4.80;3.90;;;13.80;83.90;;;;;;933170;152;27446;-75
2022/09/24 01:13:40;;;;;;;4.27;3.87;;;13.70;83.80;;;;;;934479;152;27438;-75
2022/09/24 01:16:04;;;;;;;4.63;3.70;;;13.80;83.50;;;;;;931793;152;27332;-75
2022/09/24 01:18:56;;;;;;;3.97;3.67;;;13.70;83.50;;;;;;930392;150;27397;-76
2022/09/24 01:21:24;;;;;;;5.63;4.23;;;13.70;83.60;;;;;;929308;150;27370;-76
2022/09/24 01:23:51;;;;;;;3.90;3.60;;;13.70;83.40;;;;;;926806;152;27437;-75
2022/09/24 01:26:33;;;;;;;6.27;4.93;;;13.70;83.50;;;;;;930696;150;27410;-76
2022/09/24 01:29:19;;;;;;;5.20;4.53;;;13.70;83.90;;;;;;931438;149;27387;-75
2022/09/24 01:31:45;;;;;;;4.43;4.03;;;13.70;83.90;;;;;;931444;150;27375;-78
2022/09/24 01:34:13;;;;;;;4.23;3.73;;;13.60;83.90;;;;;;932670;150;27319;-77
2022/09/24 01:36:37;;;;;;;3.93;3.57;;;13.60;84.20;;;;;;930837;152;27368;-76
2022/09/24 01:39:04;;;;;;;4.67;3.60;;;13.60;84.10;;;;;;933166;149;27309;-77
2022/09/24 01:41:33;;;;;;;4.43;3.97;;;13.60;84.30;;;;;;927925;152;27737;-77
2022/09/24 01:43:57;;;;;;;5.10;4.67;;;13.50;84.30;;;;;;925954;151;27918;-76
2022/09/24 01:46:24;;;;;;;3.60;3.30;;;13.50;84.40;;;;;;926126;151;27355;-77
2022/09/24 01:48:50;;;;;;;3.73;3.43;;;13.40;84.20;;;;;;926837;150;27347;-77
2022/09/24 01:51:26;;;;;;;6.27;3.67;;;13.40;84.00;;;;;;925660;153;27411;-78
2022/09/24 01:54:02;;;;;;;8.60;3.87;;;13.30;83.90;;;;;;926905;153;27349;-76
2022/09/24 01:56:34;;;;;;;5.40;3.73;;;13.30;83.70;;;;;;925214;150;27400;-76
2022/09/24 01:59:00;;;;;;;3.67;3.30;;;13.20;83.90;;;;;;924783;150;27318;-75
2022/09/24 02:01:30;;;;;;;4.03;3.73;;;13.10;84.00;;;;;;926869;153;27453;-75
2022/09/24 02:03:56;;;;;;;5.30;4.27;;;13.00;84.60;;;;;;925809;153;27454;-76
2022/09/24 02:06:23;;;;;;;4.63;4.03;;;13.00;84.60;;;;;;924299;150;27420;-77
2022/09/24 02:08:49;;;;;;;4.20;3.90;;;12.90;84.80;;;;;;921602;150;27394;-76
2022/09/24 02:11:16;;;;;;;4.73;3.93;;;12.80;85.00;;;;;;928175;151;27416;-76
2022/09/24 02:13:43;;;;;;;4.67;3.90;;;12.80;85.30;;;;;;926946;153;27436;-76
2022/09/24 02:16:09;;;;;;;4.73;4.20;;;12.70;85.40;;;;;;926011;153;27341;-76
2022/09/24 02:18:36;;;;;;;4.17;3.87;;;12.60;85.70;;;;;;928629;150;27364;-76
2022/09/24 02:21:02;;;;;;;5.07;3.90;;;12.60;86.10;;;;;;926389;153;28038;-76
2022/09/24 02:23:29;;;;;;;4.73;4.13;;;12.50;86.40;;;;;;926801;153;27541;-76
2022/09/24 02:25:56;;;;;;;5.00;4.43;;;12.40;86.60;;;;;;928193;151;27287;-75
2022/09/24 02:28:22;;;;;;;8.17;4.90;;;12.40;86.90;;;;;;927572;150;27289;-76
2022/09/24 02:30:51;;;;;;;6.03;3.83;;;12.30;87.20;;;;;;926545;150;27347;-77
2022/09/24 02:36:03;;;;;;;4.80;4.33;;;12.20;87.90;;;;;;926726;153;27874;-76
2022/09/24 02:38:29;;;;;;;5.03;4.20;;;12.10;88.10;;;;;;924774;150;28024;-76
2022/09/24 02:40:56;;;;;;;5.87;4.10;;;12.10;88.50;;;;;;926842;153;27359;-78
2022/09/24 02:43:23;;;;;;;4.43;4.03;;;12.00;88.40;;;;;;928316;153;27411;-78
2022/09/24 02:45:49;;;;;;;4.83;4.33;;;11.90;88.40;;;;;;924964;153;27527;-78
2022/09/24 02:48:16;;;;;;;4.17;3.87;;;11.90;88.50;;;;;;925115;151;27392;-78
2022/09/24 02:50:42;;;;;;;4.03;3.70;;;11.80;88.90;;;;;;928716;150;27285;-78
2022/09/24 02:53:09;;;;;;;4.17;3.77;;;11.70;88.80;;;;;;927278;153;27827;-78
2022/09/24 02:55:35;;;;;;;4.03;3.70;;;11.70;88.90;;;;;;926407;151;27346;-78
2022/09/24 02:58:02;;;;;;;4.33;3.93;;;11.60;89.10;;;;;;925652;150;27535;-78
2022/09/24 03:00:29;;;;;;;4.53;4.07;;;11.50;89.30;;;;;;927761;151;27423;-78
2022/09/24 03:02:55;;;;;;;4.43;4.03;;;11.50;89.60;;;;;;926872;153;27369;-78
2022/09/24 03:05:22;;;;;;;3.83;3.53;;;11.40;89.90;;;;;;925365;153;27420;-78
2022/09/24 03:07:49;;;;;;;3.90;3.60;;;11.40;90.10;;;;;;925539;153;27445;-78
2022/09/24 03:10:15;;;;;;;3.97;3.67;;;11.30;90.30;;;;;;928049;150;27268;-78
2022/09/24 03:12:42;;;;;;;3.43;3.20;;;11.30;90.50;;;;;;927993;153;27406;-78
2022/09/24 03:15:08;;;;;;;4.60;4.00;;;11.30;90.60;;;;;;925249;152;27365;-78
2022/09/24 03:17:35;;;;;;;3.80;3.50;;;11.20;90.80;;;;;;925169;153;27310;-78
2022/09/24 03:20:01;;;;;;;4.53;3.77;;;11.20;90.90;;;;;;927006;151;27347;-78
2022/09/24 03:22:28;;;;;;;3.77;3.47;;;11.20;91.00;;;;;;926380;151;27429;-78
2022/09/24 03:24:55;;;;;;;4.43;4.00;;;11.20;91.00;;;;;;926440;151;27383;-78
2022/09/24 03:27:21;;;;;;;5.50;3.90;;;11.10;91.10;;;;;;926231;151;27452;-78
2022/09/24 03:32:32;;;;;;;4.00;3.57;;;11.10;91.30;;;;;;926280;151;27452;-78
2022/09/24 03:35:00;;;;;;;4.20;3.80;;;11.00;91.20;;;;;;928741;153;27416;-78
2022/09/24 03:37:25;;;;;;;4.07;3.47;;;11.00;91.40;;;;;;925472;151;27371;-78
2022/09/24 03:39:52;;;;;;;3.80;3.43;;;11.00;91.50;;;;;;928816;150;27427;-78
2022/09/24 03:42:19;;;;;;;4.00;3.70;;;10.90;91.60;;;;;;933178;152;27331;-78
2022/09/24 03:44:45;;;;;;;4.47;4.07;;;10.90;91.70;;;;;;931853;150;27359;-78
2022/09/24 03:47:12;;;;;;;4.13;3.73;;;10.90;91.70;;;;;;932532;150;27405;-78
2022/09/24 03:49:38;;;;;;;4.30;3.67;;;10.80;91.70;;;;;;933552;150;27342;-78
2022/09/24 03:52:05;;;;;;;3.90;3.40;;;10.80;91.80;;;;;;933242;150;27498;-78
2022/09/24 03:54:32;;;;;;;4.57;3.43;;;10.80;91.90;;;;;;933469;152;27454;-78
2022/09/24 03:56:58;;;;;;;3.77;3.47;;;10.70;91.90;;;;;;934860;150;27363;-78
2022/09/24 03:59:25;;;;;;;4.80;4.33;;;10.70;92.00;;;;;;936148;149;27407;-78
2022/09/24 04:01:51;;;;;;;4.80;4.40;;;10.70;92.00;;;;;;931919;150;27319;-78
2022/09/24 04:04:18;;;;;;;4.50;4.10;;;10.60;92.10;;;;;;933338;152;27470;-78
2022/09/24 04:06:44;;;;;;;4.73;4.23;;;10.60;92.30;;;;;;930501;150;27391;-78
2022/09/24 04:09:11;;;;;;;4.57;4.17;;;10.60;92.90;;;;;;930909;149;27319;-78
2022/09/24 04:11:38;;;;;;;5.03;4.30;;;10.60;92.70;;;;;;932689;152;27343;-78
2022/09/24 04:14:04;;;;;;;4.50;4.10;;;10.60;92.80;;;;;;931956;152;27416;-78
2022/09/24 04:16:31;;;;;;;4.53;4.13;;;10.60;93.00;;;;;;932355;152;27394;-78
2022/09/24 04:18:57;;;;;;;4.33;3.93;;;10.60;93.20;;;;;;934453;149;27491;-78
2022/09/24 04:21:25;;;;;;;4.10;3.70;;;10.60;93.30;;;;;;932737;152;27357;-78
2022/09/24 04:23:51;;;;;;;5.33;4.57;;;10.50;93.00;;;;;;932967;150;27443;-78
2022/09/24 04:26:17;;;;;;;4.00;3.40;;;10.50;93.40;;;;;;932254;150;27344;-78
2022/09/24 04:28:44;;;;;;;4.17;3.77;;;10.50;93.40;;;;;;933633;149;27443;-78
2022/09/24 04:31:10;;;;;;;4.47;4.07;;;10.50;93.50;;;;;;933167;152;27442;-78
2022/09/24 04:33:37;;;;;;;4.37;3.97;;;10.50;93.60;;;;;;931555;152;28142;-78
2022/09/24 04:36:03;;;;;;;3.73;3.43;;;10.50;93.70;;;;;;932740;152;27311;-78
2022/09/24 04:38:30;;;;;;;4.80;4.20;;;10.50;93.90;;;;;;932873;149;27358;-78
2022/09/24 04:40:57;;;;;;;5.60;3.97;;;10.50;94.00;;;;;;931309;150;27338;-78
2022/09/24 04:43:23;;;;;;;5.47;4.30;;;10.50;94.10;;;;;;921965;152;27399;-78
2022/09/24 04:45:50;;;;;;;5.27;4.47;;;10.60;94.30;;;;;;927382;153;27384;-78
2022/09/24 04:48:17;;;;;;;4.07;3.77;;;10.60;94.60;;;;;;926611;151;27384;-78
2022/09/24 04:50:44;;;;;;;4.53;4.13;;;10.60;94.60;;;;;;927767;150;27424;-78
2022/09/24 04:53:10;;;;;;;5.27;4.30;;;10.60;94.70;;;;;;927619;153;27433;-78
2022/09/24 04:55:36;;;;;;;5.47;4.00;;;10.70;94.80;;;;;;927577;151;27434;-78
2022/09/24 04:58:03;;;;;;;4.40;4.00;;;10.70;94.90;;;;;;927024;151;27701;-78
2022/09/24 05:00:31;;;;;;;4.80;4.40;;;10.70;94.80;;;;;;926140;153;27542;-78
2022/09/24 05:02:57;;;;;;;5.00;3.80;;;10.80;95.00;;;;;;925626;153;27277;-78
2022/09/24 05:05:23;;;;;;;4.47;4.07;;;10.80;95.00;;;;;;925160;153;27440;-78
2022/09/24 05:07:50;;;;;;;4.77;4.37;;;10.80;95.00;;;;;;926156;150;27340;-78
2022/09/24 05:10:16;;;;;;;5.13;4.60;;;10.80;95.00;;;;;;927131;150;27402;-78
2022/09/24 05:12:42;;;;;;;7.33;4.67;;;10.80;95.00;;;;;;928008;150;27422;-78
2022/09/24 05:15:09;;;;;;;4.93;4.43;;;10.90;95.00;;;;;;927427;150;27288;-78
2022/09/24 05:17:39;;;;;;;4.50;4.10;;;10.80;95.00;;;;;;928691;153;27295;-78
2022/09/24 05:20:05;;;;;;;4.40;4.07;;;10.90;95.00;;;;;;928238;150;27368;-79
2022/09/24 05:22:32;;;;;;;4.10;3.80;;;10.90;95.00;;;;;;927481;153;27381;-78
2022/09/24 05:24:58;;;;;;;3.97;3.67;;;10.90;95.10;;;;;;927821;153;27362;-78
2022/09/24 05:27:25;;;;;;;4.23;3.83;;;10.90;95.20;;;;;;927116;150;27240;-78
2022/09/24 05:29:52;;;;;;;4.60;4.20;;;11.00;95.20;;;;;;926548;150;27332;-78
2022/09/24 05:32:18;;;;;;;4.07;3.77;;;11.00;95.20;;;;;;924277;151;27335;-78
2022/09/24 05:34:45;;;;;;;4.87;4.33;;;11.00;95.10;;;;;;926281;153;27355;-78
2022/09/24 05:37:11;;;;;;;4.07;3.73;;;11.00;95.10;;;;;;926221;152;27737;-78
2022/09/24 05:39:38;;;;;;;4.83;4.43;;;11.00;95.30;;;;;;925979;150;27372;-78
2022/09/24 05:42:05;;;;;;;4.80;4.10;;;11.00;95.50;;;;;;925915;151;27361;-78
2022/09/24 05:44:31;;;;;;;4.00;3.70;;;11.00;95.70;;;;;;924942;153;27380;-78
2022/09/24 05:46:58;;;;;;;4.27;3.97;;;11.10;95.80;;;;;;928055;153;27315;-78
2022/09/24 05:49:24;;;;;;;4.27;3.70;;;11.10;95.90;;;;;;926578;150;28674;-78
2022/09/24 05:51:51;;;;;;;4.47;4.07;;;11.20;96.10;;;;;;927067;153;27309;-78
2022/09/24 05:54:18;;;;;;;4.60;4.20;;;11.30;96.30;;;;;;926875;153;27395;-78
2022/09/24 05:56:44;;;;;;;4.67;4.27;;;11.30;96.10;;;;;;927050;153;27309;-78
2022/09/24 05:59:11;;;;;;;5.07;4.57;;;11.40;96.50;;;;;;924936;150;27395;-78
2022/09/24 06:01:37;;;;;;;4.57;4.27;;;11.50;97.30;;;;;;928345;150;27383;-78
2022/09/24 06:04:04;;;;;;;5.40;4.90;;;11.70;98.50;;;;;;927238;150;27341;-78
2022/09/24 06:06:30;;;;;;;4.83;4.10;;;12.00;99.90;;;;;;926285;151;27362;-78
2022/09/24 06:08:57;;;;;;;5.87;4.20;;;12.30;99.90;;;;;;925981;151;27398;-78
2022/09/24 06:11:24;;;;;;;5.20;4.03;;;12.80;99.90;;;;;;926932;153;27439;-78
2022/09/24 06:13:50;;;;;;;4.13;3.83;;;13.30;99.90;;;;;;927184;150;27757;-78
2022/09/24 06:16:17;;;;;;;4.60;4.20;;;14.00;99.90;;;;;;929103;153;27307;-79
2022/09/24 06:18:43;;;;;;;4.17;3.30;;;14.70;99.90;;;;;;926611;150;27319;-78
2022/09/24 06:21:13;;;;;;;3.60;3.30;;;15.50;99.90;;;;;;927109;152;28245;-78
2022/09/24 06:23:39;;;;;;;5.15;3.27;;;16.20;99.90;;;;;;925352;151;27368;-78
2022/09/24 06:26:08;;;;;;;3.30;3.00;;;16.90;97.80;;;;;;928279;150;27497;-78
2022/09/24 06:28:35;;;;;;;4.08;3.10;;;17.50;95.40;;;;;;926154;150;27391;-78
2022/09/24 06:31:01;;;;;;;3.35;3.02;;;18.10;93.70;;;;;;928362;150;27324;-78
2022/09/24 06:33:29;;;;;;;3.12;2.83;;;18.50;91.90;;;;;;920788;150;27383;-78
2022/09/24 06:35:55;;;;;;;3.02;2.75;;;18.90;89.70;;;;;;918419;150;27339;-78
2022/09/24 06:38:21;;;;;;;3.60;3.30;;;19.20;85.70;;;;;;917287;152;27440;-78
2022/09/24 06:40:48;;;;;;;3.35;2.95;;;19.40;83.30;;;;;;917469;151;27385;-77
2022/09/24 06:43:15;;;;;;;4.05;3.30;;;19.50;81.30;;;;;;919463;151;27386;-77
2022/09/24 06:45:43;;;;;;;3.40;3.10;;;19.60;80.70;;;;;;918276;152;27418;-77
2022/09/24 06:48:11;;;;;;;4.28;3.87;;;19.60;78.70;;;;;;918895;151;27522;-77
2022/09/24 06:50:37;;;;;;;3.67;3.37;;;19.70;77.50;;;;;;944054;146;27431;-77
2022/09/24 06:53:06;;;;;;;3.90;3.47;;;19.70;76.60;;;;;;942698;146;27592;-77
2022/09/24 06:55:36;;;;;;;4.08;3.42;;;19.70;75.70;;;;;;942539;146;27319;-77
2022/09/24 07:00:42;;;;;;;3.37;3.10;;;19.60;75.30;;;;;;971206;145;34985;-76
2022/09/24 07:03:12;;;;;;;3.42;3.17;;;19.60;75.20;;;;;;955203;147;27312;-76
2022/09/24 07:05:38;;;;;;;3.77;3.35;;;19.70;75.60;;;;;;955683;148;27327;-76
2022/09/24 07:08:05;;;;;;;4.30;3.40;;;19.90;75.50;;;;;;957221;148;27368;-76
2022/09/24 07:10:31;;;;;;;3.02;2.77;;;20.10;76.40;;;;;;955732;146;27315;-76
2022/09/24 07:12:58;;;;;;;3.22;2.92;;;20.40;77.40;;;;;;957158;147;27366;-76
2022/09/24 07:15:25;;;;;;;3.17;2.98;;;20.80;77.60;;;;;;955719;146;27253;-76
2022/09/24 07:17:54;;;;;;;3.90;3.50;;;21.20;76.00;;;;;;955291;145;27310;-76
2022/09/24 07:20:21;;;;;;;4.90;2.67;;;21.50;73.80;;;;;;954488;146;27454;-76
2022/09/24 07:22:47;;;;;;;3.50;2.98;;;21.70;71.50;;;;;;957483;145;27371;-76
2022/09/24 07:25:14;;;;;;;2.95;2.75;;;22.00;70.10;;;;;;955055;146;27398;-76
2022/09/24 07:27:40;;;;;;;2.83;2.62;;;22.20;70.50;;;;;;955981;147;27209;-76
2022/09/24 07:30:07;;;;;;;3.42;2.77;;;22.50;71.70;;;;;;954455;149;27432;-76
2022/09/24 07:32:34;;;;;;;4.05;3.10;;;23.00;72.80;;;;;;955736;146;27282;-76
2022/09/24 07:35:00;;;;;;;4.30;2.70;;;23.70;72.90;;;;;;953476;145;27364;-76
2022/09/24 07:37:27;;;;;;;2.83;2.62;;;24.40;72.10;;;;;;955936;146;27262;-77
2022/09/24 07:39:53;;;;;;;2.52;2.35;;;25.20;70.70;;;;;;955967;148;27309;-77
2022/09/24 07:42:20;;;;;;;3.00;2.35;;;26.00;69.00;;;;;;955344;146;27331;-77
2022/09/24 07:44:47;;;;;;;2.90;2.60;;;26.70;66.80;;;;;;949656;149;27439;-77
2022/09/24 07:47:13;;;;;;;4.67;2.55;;;27.40;65.10;;;;;;946412;148;27324;-77
2022/09/24 07:49:41;;;;;;;2.37;2.17;;;28.10;63.70;;;;;;944521;149;27798;-77
2022/09/24 07:52:06;;;;;;;3.05;2.47;;;28.70;62.20;;;;;;947013;148;27297;-77
2022/09/24 07:54:33;;;;;;;2.72;2.52;;;29.30;60.70;;;;;;946073;150;27288;-77
2022/09/24 07:57:01;;;;;;;2.60;2.20;;;29.80;59.10;;;;;;946473;149;27368;-77
2022/09/24 07:59:26;;;;;;;3.72;2.17;;;30.30;58.00;;;;;;945978;149;27459;-77
2022/09/24 08:01:53;;;;;;;3.22;2.58;;;30.70;56.90;;;;;;948267;148;27311;-77
2022/09/24 08:04:19;;;;;;;3.62;2.20;;;31.00;56.10;;;;;;948140;148;27381;-77
2022/09/24 08:06:47;;;;;;;2.55;2.05;;;31.30;54.90;;;;;;948232;148;27373;-77
2022/09/24 08:09:12;;;;;;;2.95;2.20;;;31.40;53.40;;;;;;947531;148;27408;-77
2022/09/24 08:11:39;;;;;;;2.05;1.95;;;31.30;52.30;;;;;;947582;148;27354;-77
2022/09/24 08:14:06;;;;;;;2.33;2.12;;;31.00;51.40;;;;;;947901;151;27312;-77
2022/09/24 08:16:33;;;;;;;2.17;1.75;;;30.50;50.90;;;;;;948120;148;27345;-77
2022/09/24 08:18:59;;;;;;;2.35;1.90;;;30.00;50.60;;;;;;945879;148;27335;-77
2022/09/24 08:21:26;;;;;;;2.27;2.08;;;29.40;50.50;;;;;;946809;148;27424;-76
2022/09/24 08:23:52;;;;;;;2.30;2.10;;;28.80;50.80;;;;;;947924;151;27385;-76
2022/09/24 08:26:19;;;;;;;2.10;2.00;;;28.30;51.30;;;;;;946808;148;27339;-76
2022/09/24 08:28:45;;;;;;;2.67;2.47;;;28.00;52.20;;;;;;947247;148;27323;-76
2022/09/24 08:31:12;;;;;;;2.02;1.85;;;27.80;53.00;;;;;;946190;148;27253;-76
2022/09/24 08:33:38;;;;;;;3.08;2.20;;;27.70;53.40;;;;;;948038;148;27358;-76
2022/09/24 08:36:05;;;;;;;2.17;2.02;;;27.60;53.10;;;;;;947571;148;27315;-76
2022/09/24 08:38:32;;;;;;;4.20;2.30;;;27.50;52.70;;;;;;947994;151;27287;-76
2022/09/24 08:41:05;;;;;;;2.42;2.22;;;27.30;52.40;;;;;;948224;151;27257;-76
2022/09/24 08:43:51;;;;;;;2.90;2.05;;;27.00;52.20;;;;;;947256;150;27339;-76
2022/09/24 08:49:09;;;;;;;2.40;2.30;;;26.30;52.50;;;;;;948283;151;27407;-76
2022/09/24 08:51:35;;;;;;;2.37;2.20;;;25.90;52.60;;;;;;947485;151;27315;-76
2022/09/24 08:54:08;;;;;;;3.25;2.80;;;25.50;52.80;;;;;;946748;151;27381;-76
2022/09/24 08:56:34;;;;;;;2.58;2.40;;;25.30;53.20;;;;;;947499;148;27328;-76
2022/09/24 08:59:04;;;;;;;3.10;2.45;;;25.00;53.60;;;;;;947865;150;27319;-76
2022/09/24 09:01:43;;;;;;;2.27;2.12;;;24.80;54.00;;;;;;932050;150;27433;-76
2022/09/24 09:04:40;;;;;;;3.02;2.02;;;24.70;54.50;;;;;;946178;150;27276;-76
2022/09/24 09:07:21;;;;;;;2.40;2.20;;;24.60;54.90;;;;;;946085;150;27321;-78
2022/09/24 09:09:53;;;;;;;2.40;2.20;;;24.60;55.00;;;;;;945932;150;27272;-78
2022/09/24 09:12:35;;;;;;;3.55;2.37;;;24.60;55.20;;;;;;947530;148;27339;-79
2022/09/24 09:15:07;;;;;;;2.47;2.27;;;24.50;55.30;;;;;;948062;150;27351;-77
2022/09/24 09:17:52;;;;;;;2.58;2.37;;;24.60;55.20;;;;;;947966;148;27407;-77
2022/09/24 09:20:18;;;;;;;2.65;2.45;;;24.50;55.10;;;;;;947502;148;27299;-77
2022/09/24 09:22:48;;;;;;;3.22;2.45;;;24.50;55.00;;;;;;948176;148;27261;-77
2022/09/24 09:25:24;;;;;;;2.90;2.20;;;24.50;55.00;;;;;;948445;150;27412;-77
2022/09/24 09:27:50;;;;;;;3.40;2.42;;;24.50;55.00;;;;;;948000;150;27337;-77
2022/09/24 09:30:16;;;;;;;4.22;2.47;;;24.40;55.00;;;;;;948524;150;27384;-77
2022/09/24 09:32:49;;;;;;;3.77;2.40;;;24.40;55.10;;;;;;948745;150;27370;-77
2022/09/24 09:35:49;;;;;;;2.27;2.02;;;24.40;55.20;;;;;;946712;150;27288;-77
2022/09/24 09:38:22;;;;;;;2.35;2.15;;;24.40;55.40;;;;;;947703;150;27249;-79
2022/09/24 09:40:51;;;;;;;2.25;2.15;;;24.60;55.90;;;;;;947796;150;27435;-79
2022/09/24 09:43:17;;;;;;;2.33;2.12;;;24.70;56.00;;;;;;947926;150;27315;-77
2022/09/24 09:46:06;;;;;;;3.10;2.50;;;24.90;56.30;;;;;;948215;151;27234;-77
2022/09/24 09:48:32;;;;;;;2.58;2.27;;;25.10;56.00;;;;;;947197;150;27803;-76
2022/09/24 09:50:58;;;;;;;2.55;2.35;;;25.40;55.80;;;;;;947564;150;27415;-76
2022/09/24 09:53:25;;;;;;;2.67;2.47;;;25.60;55.20;;;;;;947772;150;27336;-77
2022/09/24 09:55:52;;;;;;;5.22;2.50;;;25.70;55.20;;;;;;948192;148;27349;-77
2022/09/24 09:58:18;;;;;;;3.58;2.58;;;25.80;54.00;;;;;;947681;151;27264;-77
2022/09/24 10:00:48;;;;;;;3.12;2.90;;;25.90;53.70;;;;;;948628;148;27278;-77
2022/09/24 10:03:39;;;;;;;3.08;2.37;;;25.90;53.50;;;;;;952851;147;27365;-77
2022/09/24 10:06:05;;;;;;;2.40;2.20;;;25.80;53.20;;;;;;953464;150;27401;-76
2022/09/24 10:08:32;;;;;;;4.22;2.98;;;25.70;53.20;;;;;;952449;148;27330;-77
2022/09/24 10:10:58;;;;;;;2.60;2.40;;;25.60;53.10;;;;;;953304;147;27420;-77
2022/09/24 10:13:25;;;;;;;3.75;2.37;;;25.50;53.20;;;;;;952337;147;27239;-78
2022/09/24 10:15:55;;;;;;;3.10;2.80;;;25.40;53.70;;;;;;953007;148;27323;-78
2022/09/24 10:18:30;;;;;;;4.12;3.00;;;25.40;53.80;;;;;;953139;150;27444;-78
2022/09/24 10:20:56;;;;;;;3.20;2.90;;;25.40;53.90;;;;;;953631;148;27426;-78
2022/09/24 10:23:25;;;;;;;2.60;2.40;;;25.60;54.00;;;;;;953681;147;27284;-78
2022/09/24 10:25:54;;;;;;;3.65;3.15;;;25.70;53.70;;;;;;952780;147;27290;-78
2022/09/24 10:31:06;;;;;;;4.72;3.77;;;25.90;53.30;;;;;;953082;150;27371;-78
2022/09/24 10:33:35;;;;;;;5.22;3.92;;;26.00;53.30;;;;;;952726;149;27316;-78
2022/09/24 10:36:06;;;;;;;4.00;3.65;;;26.10;53.00;;;;;;952261;149;27309;-78
2022/09/24 10:38:31;;;;;;;3.80;3.47;;;26.30;52.80;;;;;;952904;149;27386;-78
2022/09/24 10:40:58;;;;;;;3.75;3.45;;;26.30;52.70;;;;;;953027;150;27983;-78
2022/09/24 10:43:25;;;;;;;3.00;2.70;;;26.40;52.70;;;;;;951215;147;27562;-78
2022/09/24 10:46:28;;;;;;;2.58;2.37;;;26.30;52.40;;;;;;952420;149;27359;-78
2022/09/24 10:49:13;;;;;;;2.20;2.00;;;26.30;53.10;;;;;;951249;150;27829;-78
2022/09/24 10:51:57;;;;;;;2.55;2.27;;;26.30;52.60;;;;;;951873;150;27299;-78
2022/09/24 10:54:36;;;;;;;2.30;2.10;;;26.20;52.30;;;;;;951590;148;27335;-78
2022/09/24 10:57:12;;;;;;;3.12;2.30;;;26.10;52.40;;;;;;953575;147;27841;-78
2022/09/24 10:59:57;;;;;;;2.25;2.05;;;25.90;52.30;;;;;;951946;150;27329;-78
2022/09/24 11:02:29;;;;;;;1.87;1.77;;;25.80;51.80;;;;;;944582;149;27736;-78
2022/09/24 11:04:59;;;;;;;2.05;1.95;;;25.70;51.70;;;;;;939488;149;27452;-78
2022/09/24 11:07:44;;;;;;;2.00;1.80;;;25.50;51.60;;;;;;940539;151;27454;-78
2022/09/24 11:10:28;;;;;;;3.15;1.90;;;25.40;51.70;;;;;;939869;151;27346;-78
2022/09/24 11:13:01;;;;;;;2.35;1.65;;;25.30;51.80;;;;;;939237;151;27286;-78
2022/09/24 11:15:45;;;;;;;2.40;2.12;;;25.20;51.80;;;;;;940203;152;27336;-78
2022/09/24 11:18:30;;;;;;;1.82;1.72;;;25.20;51.90;;;;;;940485;151;27349;-78
2022/09/24 11:21:02;;;;;;;3.80;2.25;;;25.30;52.20;;;;;;939158;151;27236;-78
2022/09/24 11:23:34;;;;;;;1.82;1.72;;;25.40;52.30;;;;;;939844;149;27313;-78
2022/09/24 11:26:19;;;;;;;1.90;1.80;;;25.40;52.50;;;;;;940321;149;27312;-78
2022/09/24 11:28:57;;;;;;;2.37;1.80;;;25.60;52.60;;;;;;940662;151;27353;-77
2022/09/24 11:31:36;;;;;;;3.08;1.87;;;25.80;52.20;;;;;;939325;149;27453;-77
2022/09/24 11:34:18;;;;;;;2.60;1.95;;;25.90;51.90;;;;;;940432;151;27265;-77
2022/09/24 11:37:03;;;;;;;2.08;1.87;;;26.00;51.90;;;;;;939668;152;27319;-77
2022/09/24 11:39:37;;;;;;;2.40;1.82;;;26.10;51.60;;;;;;939962;151;28458;-77
2022/09/24 11:42:07;;;;;;;5.15;2.77;;;26.10;51.30;;;;;;939919;151;27889;-77
2022/09/24 11:44:55;;;;;;;1.85;1.75;;;26.10;51.10;;;;;;939373;151;27268;-77
2022/09/24 11:47:43;;;;;;;2.30;1.90;;;26.10;50.60;;;;;;940173;149;27317;-77
2022/09/24 11:50:12;;;;;;;5.70;2.20;;;26.00;50.60;;;;;;939503;149;27378;-77
2022/09/24 11:52:45;;;;;;;3.12;2.00;;;25.90;50.70;;;;;;939636;149;27293;-78
2022/09/24 11:55:36;;;;;;;1.98;1.80;;;25.80;50.60;;;;;;935026;150;27350;-78
2022/09/24 11:58:23;;;;;;;1.65;1.55;;;25.80;50.70;;;;;;940506;151;27338;-78
2022/09/24 12:00:59;;;;;;;1.80;1.70;;;25.80;50.60;;;;;;940440;149;27316;-78
2022/09/24 12:03:31;;;;;;;1.60;1.50;;;25.80;50.60;;;;;;939956;151;27758;-78
2022/09/24 12:05:59;;;;;;;1.67;1.57;;;25.80;50.70;;;;;;940063;151;27336;-78
2022/09/24 12:08:37;;;;;;;4.55;1.67;;;25.90;50.50;;;;;;939883;151;27321;-78
2022/09/24 12:11:05;;;;;;;2.40;1.55;;;26.00;50.30;;;;;;939563;149;27322;-78
2022/09/24 12:13:40;;;;;;;1.60;1.40;;;26.10;50.30;;;;;;940692;151;27309;-79
2022/09/24 12:16:13;;;;;;;5.12;2.20;;;26.10;50.00;;;;;;940183;151;27336;-78
2022/09/24 12:18:49;;;;;;;1.87;1.77;;;26.30;49.80;;;;;;936204;151;27290;-78
2022/09/24 12:21:18;;;;;;;2.70;2.27;;;26.40;49.20;;;;;;940107;151;27288;-78
2022/09/24 12:23:44;;;;;;;2.33;1.98;;;26.40;49.00;;;;;;940371;151;27331;-78
2022/09/24 12:26:11;;;;;;;1.90;1.75;;;26.40;48.60;;;;;;940408;149;27391;-78
2022/09/24 12:34:34;;;;;;;1.98;1.80;;;26.10;48.20;;;;;;940044;149;27298;-77
2022/09/24 12:37:09;;;;;;;1.80;1.70;;;26.00;48.00;;;;;;939830;151;27242;-77
2022/09/24 12:39:36;;;;;;;3.65;2.10;;;25.70;48.00;;;;;;939874;151;27340;-77
2022/09/24 12:42:02;;;;;;;2.67;2.25;;;25.60;48.00;;;;;;939708;149;27787;-77
2022/09/24 12:44:29;;;;;;;2.20;1.72;;;25.40;48.20;;;;;;939384;149;27371;-78
2022/09/24 12:46:56;;;;;;;3.83;2.47;;;25.30;48.30;;;;;;937119;149;27441;-78
2022/09/24 12:49:25;;;;;;;1.57;1.45;;;25.20;48.40;;;;;;940101;149;27325;-78
2022/09/24 12:51:51;;;;;;;1.85;1.55;;;25.10;48.50;;;;;;940797;149;27300;-78
2022/09/24 12:54:36;;;;;;;3.50;1.70;;;25.00;48.80;;;;;;933208;151;27325;-78
2022/09/24 12:57:09;;;;;;;2.12;1.92;;;25.00;49.10;;;;;;940362;149;27345;-78
2022/09/24 12:59:34;;;;;;;2.25;1.50;;;25.00;49.20;;;;;;940436;149;27265;-78
2022/09/24 13:02:07;;;;;;;2.08;1.52;;;25.10;49.20;;;;;;938560;151;27327;-78
2022/09/24 13:04:33;;;;;;;3.65;1.87;;;25.10;49.00;;;;;;941100;149;27363;-78
2022/09/24 13:07:00;;;;;;;2.50;2.30;;;25.20;49.10;;;;;;953111;147;27380;-78
2022/09/24 13:09:35;;;;;;;1.90;1.72;;;25.20;49.00;;;;;;952893;149;27311;-78
2022/09/24 13:12:17;;;;;;;2.00;1.85;;;25.20;49.20;;;;;;952653;148;27716;-78
2022/09/24 13:15:01;;;;;;;1.62;1.52;;;25.30;49.10;;;;;;953311;150;27389;-78
2022/09/24 13:17:25;;;;;;;2.40;1.80;;;25.40;49.10;;;;;;952291;150;27397;-78
2022/09/24 13:19:57;;;;;;;4.40;1.90;;;25.40;49.10;;;;;;953203;149;27365;-78
2022/09/24 13:22:33;;;;;;;1.70;1.50;;;25.50;49.00;;;;;;940348;147;27303;-78
2022/09/24 13:25:09;;;;;;;1.80;1.70;;;25.60;48.80;;;;;;952635;147;27323;-78